sensor_id;sensor_type;location;lat;lon;timestamp;temperature;humidity
3758;DHT22;1894;51.038;13.692;2022-07-23T00:00:41;21.00;99.90
3758;DHT22;1894;51.038;13.692;2022-07-23T00:03:08;21.00;99.90
3758;DHT22;1894;51.038;13.692;2022-07-23T00:05:35;21.00;99.90
3758;DHT22;1894;51.038;13.692;2022-07-23T00:08:05;21.00;99.90
3758;DHT22;1894;51.038;13.692;2022-07-23T00:10:39;21.00;99.90
3758;DHT22;1894;51.038;13.692;2022-07-23T00:13:06;21.00;99.90
3758;DHT22;1894;51.038;13.692;2022-07-23T00:15:34;21.00;99.90
3758;DHT22;1894;51.038;13.692;2022-07-23T00:18:01;21.00;99.90
3758;DHT22;1894;51.038;13.692;2022-07-23T00:20:28;21.10;99.90
3758;DHT22;1894;51.038;13.692;2022-07-23T00:22:55;21.00;99.90
3758;DHT22;1894;51.038;13.692;2022-07-23T00:25:23;21.00;99.90
3758;DHT22;1894;51.038;13.692;2022-07-23T00:27:57;21.00;99.90
3758;DHT22;1894;51.038;13.692;2022-07-23T00:30:24;21.00;99.90
3758;DHT22;1894;51.038;13.692;2022-07-23T00:32:53;20.90;99.90
3758;DHT22;1894;51.038;13.692;2022-07-23T00:35:25;20.90;99.90
3758;DHT22;1894;51.038;13.692;2022-07-23T00:37:53;21.00;99.90
3758;DHT22;1894;51.038;13.692;2022-07-23T00:40:21;20.90;99.90
3758;DHT22;1894;51.038;13.692;2022-07-23T00:42:48;20.90;99.90
3758;DHT22;1894;51.038;13.692;2022-07-23T00:45:16;20.90;99.90
3758;DHT22;1894;51.038;13.692;2022-07-23T00:47:43;20.90;99.90
3758;DHT22;1894;51.038;13.692;2022-07-23T00:50:11;20.90;99.90
3758;DHT22;1894;51.038;13.692;2022-07-23T00:52:38;20.80;99.90
3758;DHT22;1894;51.038;13.692;2022-07-23T00:55:08;20.80;99.90
3758;DHT22;1894;51.038;13.692;2022-07-23T00:57:36;20.80;99.90
3758;DHT22;1894;51.038;13.692;2022-07-23T01:00:05;20.80;99.90
3758;DHT22;1894;51.038;13.692;2022-07-23T01:02:33;20.80;99.90
3758;DHT22;1894;51.038;13.692;2022-07-23T01:05:00;20.80;99.90
3758;DHT22;1894;51.038;13.692;2022-07-23T01:07:28;20.90;99.90
3758;DHT22;1894;51.038;13.692;2022-07-23T01:09:55;20.80;99.90
3758;DHT22;1894;51.038;13.692;2022-07-23T01:12:22;20.80;99.90
3758;DHT22;1894;51.038;13.692;2022-07-23T01:14:58;20.90;99.90
3758;DHT22;1894;51.038;13.692;2022-07-23T01:17:28;21.00;99.90
3758;DHT22;1894;51.038;13.692;2022-07-23T01:19:55;20.90;99.90
3758;DHT22;1894;51.038;13.692;2022-07-23T01:22:22;20.90;99.90
3758;DHT22;1894;51.038;13.692;2022-07-23T01:24:50;20.90;99.90
3758;DHT22;1894;51.038;13.692;2022-07-23T01:27:22;20.80;99.90
3758;DHT22;1894;51.038;13.692;2022-07-23T01:29:55;20.80;99.90
3758;DHT22;1894;51.038;13.692;2022-07-23T01:32:24;20.70;99.90
3758;DHT22;1894;51.038;13.692;2022-07-23T01:34:51;20.70;99.90
3758;DHT22;1894;51.038;13.692;2022-07-23T01:37:19;20.70;99.90
3758;DHT22;1894;51.038;13.692;2022-07-23T01:39:47;20.60;99.90
3758;DHT22;1894;51.038;13.692;2022-07-23T01:42:14;20.60;99.90
3758;DHT22;1894;51.038;13.692;2022-07-23T01:44:41;20.60;99.90
3758;DHT22;1894;51.038;13.692;2022-07-23T01:47:14;20.50;99.90
3758;DHT22;1894;51.038;13.692;2022-07-23T01:49:42;20.50;99.90
3758;DHT22;1894;51.038;13.692;2022-07-23T01:52:25;20.50;99.90
3758;DHT22;1894;51.038;13.692;2022-07-23T01:54:53;20.40;99.90
3758;DHT22;1894;51.038;13.692;2022-07-23T01:57:20;20.30;99.90
3758;DHT22;1894;51.038;13.692;2022-07-23T01:59:48;20.30;99.90
3758;DHT22;1894;51.038;13.692;2022-07-23T02:02:18;20.30;99.90
3758;DHT22;1894;51.038;13.692;2022-07-23T02:04:45;20.30;99.90
3758;DHT22;1894;51.038;13.692;2022-07-23T02:07:16;20.40;99.90
3758;DHT22;1894;51.038;13.692;2022-07-23T02:09:43;20.40;99.90
3758;DHT22;1894;51.038;13.692;2022-07-23T02:12:11;20.50;99.90
3758;DHT22;1894;51.038;13.692;2022-07-23T02:14:38;20.50;99.90
3758;DHT22;1894;51.038;13.692;2022-07-23T02:17:06;20.50;99.90
3758;DHT22;1894;51.038;13.692;2022-07-23T02:19:34;20.60;99.90
3758;DHT22;1894;51.038;13.692;2022-07-23T02:22:01;20.50;99.90
3758;DHT22;1894;51.038;13.692;2022-07-23T02:24:28;20.50;99.90
3758;DHT22;1894;51.038;13.692;2022-07-23T02:26:55;20.50;99.90
3758;DHT22;1894;51.038;13.692;2022-07-23T02:29:23;20.50;99.90
3758;DHT22;1894;51.038;13.692;2022-07-23T02:31:50;20.40;99.90
3758;DHT22;1894;51.038;13.692;2022-07-23T02:34:17;20.50;99.90
3758;DHT22;1894;51.038;13.692;2022-07-23T02:36:44;20.40;99.90
3758;DHT22;1894;51.038;13.692;2022-07-23T02:39:12;20.40;99.90
3758;DHT22;1894;51.038;13.692;2022-07-23T02:41:39;20.40;99.90
3758;DHT22;1894;51.038;13.692;2022-07-23T02:44:07;20.40;99.90
3758;DHT22;1894;51.038;13.692;2022-07-23T02:46:35;20.40;99.90
3758;DHT22;1894;51.038;13.692;2022-07-23T02:49:03;20.40;99.90
3758;DHT22;1894;51.038;13.692;2022-07-23T02:51:32;20.40;99.90
3758;DHT22;1894;51.038;13.692;2022-07-23T02:54:03;20.30;99.90
3758;DHT22;1894;51.038;13.692;2022-07-23T02:56:30;20.20;99.90
3758;DHT22;1894;51.038;13.692;2022-07-23T02:58:57;20.20;99.90
3758;DHT22;1894;51.038;13.692;2022-07-23T03:01:25;20.20;99.90
3758;DHT22;1894;51.038;13.692;2022-07-23T03:03:53;20.20;99.90
3758;DHT22;1894;51.038;13.692;2022-07-23T03:06:21;20.10;99.90
3758;DHT22;1894;51.038;13.692;2022-07-23T03:08:49;20.20;99.90
3758;DHT22;1894;51.038;13.692;2022-07-23T03:11:16;20.20;99.90
3758;DHT22;1894;51.038;13.692;2022-07-23T03:13:44;20.30;99.90
3758;DHT22;1894;51.038;13.692;2022-07-23T03:16:11;20.30;99.90
3758;DHT22;1894;51.038;13.692;2022-07-23T03:18:38;20.40;99.90
3758;DHT22;1894;51.038;13.692;2022-07-23T03:21:07;20.40;99.90
3758;DHT22;1894;51.038;13.692;2022-07-23T03:23:36;20.40;99.90
3758;DHT22;1894;51.038;13.692;2022-07-23T03:26:03;20.40;99.90
3758;DHT22;1894;51.038;13.692;2022-07-23T03:28:31;20.40;99.90
3758;DHT22;1894;51.038;13.692;2022-07-23T03:30:58;20.30;99.90
3758;DHT22;1894;51.038;13.692;2022-07-23T03:33:25;20.30;99.90
3758;DHT22;1894;51.038;13.692;2022-07-23T03:35:53;20.30;99.90
3758;DHT22;1894;51.038;13.692;2022-07-23T03:38:29;20.30;99.90
3758;DHT22;1894;51.038;13.692;2022-07-23T03:40:57;20.40;99.90
3758;DHT22;1894;51.038;13.692;2022-07-23T03:43:24;20.50;99.90
3758;DHT22;1894;51.038;13.692;2022-07-23T03:45:52;20.50;99.90
3758;DHT22;1894;51.038;13.692;2022-07-23T03:48:19;20.50;99.90
3758;DHT22;1894;51.038;13.692;2022-07-23T03:50:46;20.30;99.90
3758;DHT22;1894;51.038;13.692;2022-07-23T03:53:14;20.20;99.90
3758;DHT22;1894;51.038;13.692;2022-07-23T03:55:40;20.20;99.90
3758;DHT22;1894;51.038;13.692;2022-07-23T03:58:08;20.00;99.90
3758;DHT22;1894;51.038;13.692;2022-07-23T04:00:35;20.00;99.90
3758;DHT22;1894;51.038;13.692;2022-07-23T04:03:02;19.80;99.90
3758;DHT22;1894;51.038;13.692;2022-07-23T04:05:29;19.80;99.90
3758;DHT22;1894;51.038;13.692;2022-07-23T04:08:05;19.80;99.90
3758;DHT22;1894;51.038;13.692;2022-07-23T04:10:34;20.10;99.90
3758;DHT22;1894;51.038;13.692;2022-07-23T04:13:04;19.90;99.90
3758;DHT22;1894;51.038;13.692;2022-07-23T04:15:31;19.90;99.90
3758;DHT22;1894;51.038;13.692;2022-07-23T04:17:58;19.80;99.90
3758;DHT22;1894;51.038;13.692;2022-07-23T04:20:33;19.80;99.90
3758;DHT22;1894;51.038;13.692;2022-07-23T04:23:06;19.90;99.90
3758;DHT22;1894;51.038;13.692;2022-07-23T04:25:35;20.10;99.90
3758;DHT22;1894;51.038;13.692;2022-07-23T04:28:02;20.10;99.90
3758;DHT22;1894;51.038;13.692;2022-07-23T04:30:30;20.00;99.90
3758;DHT22;1894;51.038;13.692;2022-07-23T04:32:57;19.90;99.90
3758;DHT22;1894;51.038;13.692;2022-07-23T04:35:27;20.00;99.90
3758;DHT22;1894;51.038;13.692;2022-07-23T04:38:03;20.10;99.90
3758;DHT22;1894;51.038;13.692;2022-07-23T04:40:30;20.00;99.90
3758;DHT22;1894;51.038;13.692;2022-07-23T04:42:57;19.50;99.90
3758;DHT22;1894;51.038;13.692;2022-07-23T04:45:24;19.40;99.90
3758;DHT22;1894;51.038;13.692;2022-07-23T04:47:51;19.30;99.90
3758;DHT22;1894;51.038;13.692;2022-07-23T04:50:19;19.20;99.90
3758;DHT22;1894;51.038;13.692;2022-07-23T04:52:51;19.20;99.90
3758;DHT22;1894;51.038;13.692;2022-07-23T04:55:18;19.20;99.90
3758;DHT22;1894;51.038;13.692;2022-07-23T04:57:45;19.10;99.90
3758;DHT22;1894;51.038;13.692;2022-07-23T05:00:13;19.20;99.90
3758;DHT22;1894;51.038;13.692;2022-07-23T05:02:41;19.10;99.90
3758;DHT22;1894;51.038;13.692;2022-07-23T05:05:09;19.20;99.90
3758;DHT22;1894;51.038;13.692;2022-07-23T05:07:36;19.40;99.90
3758;DHT22;1894;51.038;13.692;2022-07-23T05:10:03;19.40;99.90
3758;DHT22;1894;51.038;13.692;2022-07-23T05:12:30;19.30;99.90
3758;DHT22;1894;51.038;13.692;2022-07-23T05:14:57;19.50;99.90
3758;DHT22;1894;51.038;13.692;2022-07-23T05:17:25;19.50;99.90
3758;DHT22;1894;51.038;13.692;2022-07-23T05:19:53;19.70;99.90
3758;DHT22;1894;51.038;13.692;2022-07-23T05:22:26;19.60;99.90
3758;DHT22;1894;51.038;13.692;2022-07-23T05:24:53;19.60;99.90
3758;DHT22;1894;51.038;13.692;2022-07-23T05:27:20;19.60;99.90
3758;DHT22;1894;51.038;13.692;2022-07-23T05:29:47;19.70;99.90
3758;DHT22;1894;51.038;13.692;2022-07-23T05:32:14;20.00;99.90
3758;DHT22;1894;51.038;13.692;2022-07-23T05:34:49;20.30;99.90
3758;DHT22;1894;51.038;13.692;2022-07-23T05:37:16;20.20;99.90
3758;DHT22;1894;51.038;13.692;2022-07-23T05:39:44;20.00;99.90
3758;DHT22;1894;51.038;13.692;2022-07-23T05:42:11;19.70;99.90
3758;DHT22;1894;51.038;13.692;2022-07-23T05:44:39;19.50;99.90
3758;DHT22;1894;51.038;13.692;2022-07-23T05:47:07;19.40;99.90
3758;DHT22;1894;51.038;13.692;2022-07-23T05:49:36;19.50;99.90
3758;DHT22;1894;51.038;13.692;2022-07-23T05:52:07;19.40;99.90
3758;DHT22;1894;51.038;13.692;2022-07-23T05:54:57;19.20;99.90
3758;DHT22;1894;51.038;13.692;2022-07-23T05:57:25;19.40;99.90
3758;DHT22;1894;51.038;13.692;2022-07-23T05:59:52;19.40;99.90
3758;DHT22;1894;51.038;13.692;2022-07-23T06:02:19;19.50;99.90
3758;DHT22;1894;51.038;13.692;2022-07-23T06:04:46;19.10;99.90
3758;DHT22;1894;51.038;13.692;2022-07-23T06:07:29;19.30;99.90
3758;DHT22;1894;51.038;13.692;2022-07-23T06:09:57;19.30;99.90
3758;DHT22;1894;51.038;13.692;2022-07-23T06:12:24;19.10;99.90
3758;DHT22;1894;51.038;13.692;2022-07-23T06:14:53;19.00;99.90
3758;DHT22;1894;51.038;13.692;2022-07-23T06:17:21;19.10;99.90
3758;DHT22;1894;51.038;13.692;2022-07-23T06:19:48;19.10;99.90
3758;DHT22;1894;51.038;13.692;2022-07-23T06:22:18;19.00;99.90
3758;DHT22;1894;51.038;13.692;2022-07-23T06:24:45;19.00;99.90
3758;DHT22;1894;51.038;13.692;2022-07-23T06:27:12;19.00;99.90
3758;DHT22;1894;51.038;13.692;2022-07-23T06:29:39;19.00;99.90
3758;DHT22;1894;51.038;13.692;2022-07-23T06:32:07;18.80;99.90
3758;DHT22;1894;51.038;13.692;2022-07-23T06:34:35;19.00;99.90
3758;DHT22;1894;51.038;13.692;2022-07-23T06:37:02;19.10;99.90
3758;DHT22;1894;51.038;13.692;2022-07-23T06:39:29;19.30;99.90
3758;DHT22;1894;51.038;13.692;2022-07-23T06:41:57;19.30;99.90
3758;DHT22;1894;51.038;13.692;2022-07-23T06:44:43;19.20;99.90
3758;DHT22;1894;51.038;13.692;2022-07-23T06:47:10;19.50;99.90
3758;DHT22;1894;51.038;13.692;2022-07-23T06:49:37;19.60;99.90
3758;DHT22;1894;51.038;13.692;2022-07-23T06:52:04;19.60;99.90
3758;DHT22;1894;51.038;13.692;2022-07-23T06:54:32;19.70;99.90
3758;DHT22;1894;51.038;13.692;2022-07-23T06:57:00;20.10;99.90
3758;DHT22;1894;51.038;13.692;2022-07-23T06:59:27;20.10;99.90
3758;DHT22;1894;51.038;13.692;2022-07-23T07:01:54;20.20;99.90
3758;DHT22;1894;51.038;13.692;2022-07-23T07:04:22;20.30;99.90
3758;DHT22;1894;51.038;13.692;2022-07-23T07:06:49;20.60;99.90
3758;DHT22;1894;51.038;13.692;2022-07-23T07:09:16;20.60;99.90
3758;DHT22;1894;51.038;13.692;2022-07-23T07:11:43;20.80;99.90
3758;DHT22;1894;51.038;13.692;2022-07-23T07:14:10;20.60;99.90
3758;DHT22;1894;51.038;13.692;2022-07-23T07:16:37;21.00;99.90
3758;DHT22;1894;51.038;13.692;2022-07-23T07:19:04;21.40;99.90
3758;DHT22;1894;51.038;13.692;2022-07-23T07:21:31;21.40;99.90
3758;DHT22;1894;51.038;13.692;2022-07-23T07:23:59;21.50;99.90
3758;DHT22;1894;51.038;13.692;2022-07-23T07:26:26;21.50;99.90
3758;DHT22;1894;51.038;13.692;2022-07-23T07:28:53;21.70;99.90
3758;DHT22;1894;51.038;13.692;2022-07-23T07:31:20;21.60;99.90
3758;DHT22;1894;51.038;13.692;2022-07-23T07:33:47;21.90;99.90
3758;DHT22;1894;51.038;13.692;2022-07-23T07:36:14;21.70;99.90
3758;DHT22;1894;51.038;13.692;2022-07-23T07:38:45;21.70;99.90
3758;DHT22;1894;51.038;13.692;2022-07-23T07:41:12;21.90;99.90
3758;DHT22;1894;51.038;13.692;2022-07-23T07:43:40;22.00;99.90
3758;DHT22;1894;51.038;13.692;2022-07-23T07:46:07;21.60;99.90
3758;DHT22;1894;51.038;13.692;2022-07-23T07:48:37;22.00;99.90
3758;DHT22;1894;51.038;13.692;2022-07-23T07:51:05;22.40;99.90
3758;DHT22;1894;51.038;13.692;2022-07-23T07:53:32;22.90;99.90
3758;DHT22;1894;51.038;13.692;2022-07-23T07:55:59;23.60;99.90
3758;DHT22;1894;51.038;13.692;2022-07-23T07:58:26;24.20;99.90
3758;DHT22;1894;51.038;13.692;2022-07-23T08:00:54;24.40;99.90
3758;DHT22;1894;51.038;13.692;2022-07-23T08:03:21;24.30;99.90
3758;DHT22;1894;51.038;13.692;2022-07-23T08:05:49;24.50;99.90
3758;DHT22;1894;51.038;13.692;2022-07-23T08:08:16;24.30;99.90
3758;DHT22;1894;51.038;13.692;2022-07-23T08:10:43;23.90;99.90
3758;DHT22;1894;51.038;13.692;2022-07-23T08:13:13;24.20;99.90
3758;DHT22;1894;51.038;13.692;2022-07-23T08:15:42;24.60;99.90
3758;DHT22;1894;51.038;13.692;2022-07-23T08:18:10;25.10;99.90
3758;DHT22;1894;51.038;13.692;2022-07-23T08:20:37;25.20;99.90
3758;DHT22;1894;51.038;13.692;2022-07-23T08:23:06;24.50;99.90
3758;DHT22;1894;51.038;13.692;2022-07-23T08:25:39;24.20;99.90
3758;DHT22;1894;51.038;13.692;2022-07-23T08:28:09;23.30;99.90
3758;DHT22;1894;51.038;13.692;2022-07-23T08:30:37;24.10;99.90
3758;DHT22;1894;51.038;13.692;2022-07-23T08:33:12;24.50;99.90
3758;DHT22;1894;51.038;13.692;2022-07-23T08:35:57;24.80;99.90
3758;DHT22;1894;51.038;13.692;2022-07-23T08:38:24;25.30;99.90
3758;DHT22;1894;51.038;13.692;2022-07-23T08:40:54;24.90;99.90
3758;DHT22;1894;51.038;13.692;2022-07-23T08:43:26;25.70;99.90
3758;DHT22;1894;51.038;13.692;2022-07-23T08:45:55;26.00;99.90
3758;DHT22;1894;51.038;13.692;2022-07-23T08:48:36;26.20;99.90
3758;DHT22;1894;51.038;13.692;2022-07-23T08:51:06;26.10;99.90
3758;DHT22;1894;51.038;13.692;2022-07-23T08:53:34;26.40;99.90
3758;DHT22;1894;51.038;13.692;2022-07-23T08:56:05;26.70;99.90
3758;DHT22;1894;51.038;13.692;2022-07-23T08:58:36;26.70;99.90
3758;DHT22;1894;51.038;13.692;2022-07-23T09:01:03;27.20;99.90
3758;DHT22;1894;51.038;13.692;2022-07-23T09:03:32;27.20;99.90
3758;DHT22;1894;51.038;13.692;2022-07-23T09:06:00;26.70;99.90
3758;DHT22;1894;51.038;13.692;2022-07-23T09:08:42;26.60;99.90
3758;DHT22;1894;51.038;13.692;2022-07-23T09:11:16;27.00;99.90
3758;DHT22;1894;51.038;13.692;2022-07-23T09:13:51;27.30;99.90
3758;DHT22;1894;51.038;13.692;2022-07-23T09:16:28;26.90;99.90
3758;DHT22;1894;51.038;13.692;2022-07-23T09:18:59;25.80;99.90
3758;DHT22;1894;51.038;13.692;2022-07-23T09:21:28;25.90;99.90
3758;DHT22;1894;51.038;13.692;2022-07-23T09:24:07;26.20;99.90
3758;DHT22;1894;51.038;13.692;2022-07-23T09:26:46;26.00;99.90
3758;DHT22;1894;51.038;13.692;2022-07-23T09:29:25;26.80;99.90
3758;DHT22;1894;51.038;13.692;2022-07-23T09:31:58;27.50;99.90
3758;DHT22;1894;51.038;13.692;2022-07-23T09:34:30;27.60;99.90
3758;DHT22;1894;51.038;13.692;2022-07-23T09:37:19;27.90;99.90
3758;DHT22;1894;51.038;13.692;2022-07-23T09:39:47;27.50;99.90
3758;DHT22;1894;51.038;13.692;2022-07-23T09:42:25;27.50;99.90
3758;DHT22;1894;51.038;13.692;2022-07-23T09:44:56;27.50;99.90
3758;DHT22;1894;51.038;13.692;2022-07-23T09:47:27;27.40;99.90
3758;DHT22;1894;51.038;13.692;2022-07-23T09:50:08;27.90;99.90
3758;DHT22;1894;51.038;13.692;2022-07-23T09:52:44;28.30;99.90
3758;DHT22;1894;51.038;13.692;2022-07-23T09:55:13;28.40;99.90
3758;DHT22;1894;51.038;13.692;2022-07-23T09:57:43;28.20;99.90
3758;DHT22;1894;51.038;13.692;2022-07-23T10:00:17;28.20;99.90
3758;DHT22;1894;51.038;13.692;2022-07-23T10:02:46;28.20;99.90
3758;DHT22;1894;51.038;13.692;2022-07-23T10:05:26;28.60;99.90
3758;DHT22;1894;51.038;13.692;2022-07-23T10:08:12;28.60;99.90
3758;DHT22;1894;51.038;13.692;2022-07-23T10:10:58;28.60;99.90
3758;DHT22;1894;51.038;13.692;2022-07-23T10:13:36;28.60;99.90
3758;DHT22;1894;51.038;13.692;2022-07-23T10:16:57;28.10;99.90
3758;DHT22;1894;51.038;13.692;2022-07-23T10:19:25;27.50;99.90
3758;DHT22;1894;51.038;13.692;2022-07-23T10:21:58;27.50;99.90
3758;DHT22;1894;51.038;13.692;2022-07-23T10:24:49;27.80;99.90
3758;DHT22;1894;51.038;13.692;2022-07-23T10:36:04;27.60;99.90
3758;DHT22;1894;51.038;13.692;2022-07-23T10:41:10;26.90;99.90
3758;DHT22;1894;51.038;13.692;2022-07-23T10:43:40;27.40;99.90
3758;DHT22;1894;51.038;13.692;2022-07-23T10:46:24;27.50;99.90
3758;DHT22;1894;51.038;13.692;2022-07-23T10:49:29;27.00;99.90
3758;DHT22;1894;51.038;13.692;2022-07-23T10:57:29;27.60;99.90
3758;DHT22;1894;51.038;13.692;2022-07-23T11:02:45;28.80;99.90
3758;DHT22;1894;51.038;13.692;2022-07-23T11:05:21;28.70;99.90
3758;DHT22;1894;51.038;13.692;2022-07-23T11:08:19;28.80;99.90
3758;DHT22;1894;51.038;13.692;2022-07-23T11:10:50;28.40;99.90
3758;DHT22;1894;51.038;13.692;2022-07-23T11:13:30;29.10;99.90
3758;DHT22;1894;51.038;13.692;2022-07-23T11:24:09;29.20;99.90
3758;DHT22;1894;51.038;13.692;2022-07-23T11:26:57;29.10;99.90
3758;DHT22;1894;51.038;13.692;2022-07-23T11:34:40;27.70;99.90
3758;DHT22;1894;51.038;13.692;2022-07-23T11:37:10;27.00;99.90
3758;DHT22;1894;51.038;13.692;2022-07-23T11:39:38;26.50;99.90
3758;DHT22;1894;51.038;13.692;2022-07-23T11:42:07;26.10;99.90
3758;DHT22;1894;51.038;13.692;2022-07-23T11:44:38;25.70;99.90
3758;DHT22;1894;51.038;13.692;2022-07-23T11:47:07;25.60;99.90
3758;DHT22;1894;51.038;13.692;2022-07-23T11:49:35;26.10;99.90
3758;DHT22;1894;51.038;13.692;2022-07-23T11:52:13;26.30;99.90
3758;DHT22;1894;51.038;13.692;2022-07-23T11:54:59;26.50;99.90
3758;DHT22;1894;51.038;13.692;2022-07-23T11:57:31;25.90;99.90
3758;DHT22;1894;51.038;13.692;2022-07-23T12:02:43;25.40;99.90
3758;DHT22;1894;51.038;13.692;2022-07-23T12:05:16;25.30;99.90
3758;DHT22;1894;51.038;13.692;2022-07-23T12:07:45;25.20;99.90
3758;DHT22;1894;51.038;13.692;2022-07-23T12:10:25;25.00;99.90
3758;DHT22;1894;51.038;13.692;2022-07-23T12:13:18;24.70;99.90
3758;DHT22;1894;51.038;13.692;2022-07-23T12:15:50;24.20;99.90
3758;DHT22;1894;51.038;13.692;2022-07-23T12:18:24;23.70;99.90
3758;DHT22;1894;51.038;13.692;2022-07-23T12:20:54;23.80;99.90
3758;DHT22;1894;51.038;13.692;2022-07-23T12:23:25;24.00;99.90
3758;DHT22;1894;51.038;13.692;2022-07-23T12:25:53;24.50;99.90
3758;DHT22;1894;51.038;13.692;2022-07-23T12:28:26;24.80;99.90
3758;DHT22;1894;51.038;13.692;2022-07-23T12:30:55;24.90;99.90
3758;DHT22;1894;51.038;13.692;2022-07-23T12:33:24;24.60;99.90
3758;DHT22;1894;51.038;13.692;2022-07-23T12:35:53;24.80;99.90
3758;DHT22;1894;51.038;13.692;2022-07-23T12:38:23;25.40;99.90
3758;DHT22;1894;51.038;13.692;2022-07-23T12:40:58;27.40;99.90
3758;DHT22;1894;51.038;13.692;2022-07-23T12:43:29;29.00;99.90
3758;DHT22;1894;51.038;13.692;2022-07-23T12:48:51;28.70;99.90
3758;DHT22;1894;51.038;13.692;2022-07-23T12:51:22;29.80;99.90
3758;DHT22;1894;51.038;13.692;2022-07-23T12:53:54;31.70;99.90
3758;DHT22;1894;51.038;13.692;2022-07-23T12:56:31;31.80;99.90
3758;DHT22;1894;51.038;13.692;2022-07-23T12:58:58;31.50;99.90
3758;DHT22;1894;51.038;13.692;2022-07-23T13:01:31;31.00;99.90
3758;DHT22;1894;51.038;13.692;2022-07-23T13:04:11;31.20;99.90
3758;DHT22;1894;51.038;13.692;2022-07-23T13:06:46;31.70;99.90
3758;DHT22;1894;51.038;13.692;2022-07-23T13:09:16;31.40;99.90
3758;DHT22;1894;51.038;13.692;2022-07-23T13:11:45;30.90;99.90
3758;DHT22;1894;51.038;13.692;2022-07-23T13:14:14;32.70;98.40
3758;DHT22;1894;51.038;13.692;2022-07-23T13:16:42;32.50;97.80
3758;DHT22;1894;51.038;13.692;2022-07-23T13:19:10;32.70;97.20
3758;DHT22;1894;51.038;13.692;2022-07-23T13:21:39;32.80;96.80
3758;DHT22;1894;51.038;13.692;2022-07-23T13:24:07;32.00;97.50
3758;DHT22;1894;51.038;13.692;2022-07-23T13:26:36;30.60;99.40
3758;DHT22;1894;51.038;13.692;2022-07-23T13:29:04;29.40;99.90
3758;DHT22;1894;51.038;13.692;2022-07-23T13:31:36;29.10;99.90
3758;DHT22;1894;51.038;13.692;2022-07-23T13:34:05;30.00;99.90
3758;DHT22;1894;51.038;13.692;2022-07-23T13:36:35;30.10;99.90
3758;DHT22;1894;51.038;13.692;2022-07-23T13:39:03;31.00;99.90
3758;DHT22;1894;51.038;13.692;2022-07-23T13:41:33;32.10;99.00
3758;DHT22;1894;51.038;13.692;2022-07-23T13:44:02;33.30;96.70
3758;DHT22;1894;51.038;13.692;2022-07-23T13:46:30;33.20;95.90
3758;DHT22;1894;51.038;13.692;2022-07-23T13:48:57;31.40;98.30
3758;DHT22;1894;51.038;13.692;2022-07-23T13:51:25;30.60;99.90
3758;DHT22;1894;51.038;13.692;2022-07-23T13:53:54;30.60;99.90
3758;DHT22;1894;51.038;13.692;2022-07-23T13:56:21;30.30;99.90
3758;DHT22;1894;51.038;13.692;2022-07-23T13:58:48;30.60;99.90
3758;DHT22;1894;51.038;13.692;2022-07-23T14:01:15;30.80;99.90
3758;DHT22;1894;51.038;13.692;2022-07-23T14:03:44;30.90;99.60
3758;DHT22;1894;51.038;13.692;2022-07-23T14:06:11;29.90;99.90
3758;DHT22;1894;51.038;13.692;2022-07-23T14:08:43;29.10;99.90
3758;DHT22;1894;51.038;13.692;2022-07-23T14:11:12;29.30;99.90
3758;DHT22;1894;51.038;13.692;2022-07-23T14:13:39;29.40;99.90
3758;DHT22;1894;51.038;13.692;2022-07-23T14:16:07;30.70;99.90
3758;DHT22;1894;51.038;13.692;2022-07-23T14:18:34;32.00;97.70
3758;DHT22;1894;51.038;13.692;2022-07-23T14:21:02;32.00;96.80
3758;DHT22;1894;51.038;13.692;2022-07-23T14:23:29;31.40;97.50
3758;DHT22;1894;51.038;13.692;2022-07-23T14:25:57;30.50;98.50
3758;DHT22;1894;51.038;13.692;2022-07-23T14:28:24;30.50;99.00
3758;DHT22;1894;51.038;13.692;2022-07-23T14:30:51;30.80;98.70
3758;DHT22;1894;51.038;13.692;2022-07-23T14:33:18;31.30;98.00
3758;DHT22;1894;51.038;13.692;2022-07-23T14:35:46;32.70;96.10
3758;DHT22;1894;51.038;13.692;2022-07-23T14:38:16;35.30;91.30
3758;DHT22;1894;51.038;13.692;2022-07-23T14:40:43;35.30;88.80
3758;DHT22;1894;51.038;13.692;2022-07-23T14:43:11;34.90;89.40
3758;DHT22;1894;51.038;13.692;2022-07-23T14:45:38;34.90;89.20
3758;DHT22;1894;51.038;13.692;2022-07-23T14:48:06;33.70;90.80
3758;DHT22;1894;51.038;13.692;2022-07-23T14:50:34;32.70;92.40
3758;DHT22;1894;51.038;13.692;2022-07-23T14:53:01;32.00;93.30
3758;DHT22;1894;51.038;13.692;2022-07-23T14:55:31;31.10;94.90
3758;DHT22;1894;51.038;13.692;2022-07-23T14:57:58;31.70;94.40
3758;DHT22;1894;51.038;13.692;2022-07-23T15:00:26;31.30;94.70
3758;DHT22;1894;51.038;13.692;2022-07-23T15:02:54;31.80;94.20
3758;DHT22;1894;51.038;13.692;2022-07-23T15:05:41;32.20;93.70
3758;DHT22;1894;51.038;13.692;2022-07-23T15:08:08;31.60;93.70
3758;DHT22;1894;51.038;13.692;2022-07-23T15:10:35;30.50;95.40
3758;DHT22;1894;51.038;13.692;2022-07-23T15:13:03;29.10;98.50
3758;DHT22;1894;51.038;13.692;2022-07-23T15:15:31;28.70;99.90
3758;DHT22;1894;51.038;13.692;2022-07-23T15:17:58;28.40;99.90
3758;DHT22;1894;51.038;13.692;2022-07-23T15:20:25;29.70;98.80
3758;DHT22;1894;51.038;13.692;2022-07-23T15:23:05;29.10;99.20
3758;DHT22;1894;51.038;13.692;2022-07-23T15:25:34;29.20;99.40
3758;DHT22;1894;51.038;13.692;2022-07-23T15:28:02;28.70;99.90
3758;DHT22;1894;51.038;13.692;2022-07-23T15:30:29;29.20;99.90
3758;DHT22;1894;51.038;13.692;2022-07-23T15:32:56;29.60;99.20
3758;DHT22;1894;51.038;13.692;2022-07-23T15:35:24;30.10;98.10
3758;DHT22;1894;51.038;13.692;2022-07-23T15:37:51;29.60;98.10
3758;DHT22;1894;51.038;13.692;2022-07-23T15:40:20;29.40;98.50
3758;DHT22;1894;51.038;13.692;2022-07-23T15:42:48;28.60;99.90
3758;DHT22;1894;51.038;13.692;2022-07-23T15:45:15;28.50;99.90
3758;DHT22;1894;51.038;13.692;2022-07-23T15:47:44;28.10;99.90
3758;DHT22;1894;51.038;13.692;2022-07-23T15:50:11;28.00;99.90
3758;DHT22;1894;51.038;13.692;2022-07-23T15:52:38;28.10;99.90
3758;DHT22;1894;51.038;13.692;2022-07-23T15:55:06;29.60;99.90
3758;DHT22;1894;51.038;13.692;2022-07-23T15:57:41;30.30;98.10
3758;DHT22;1894;51.038;13.692;2022-07-23T16:00:09;31.30;96.10
3758;DHT22;1894;51.038;13.692;2022-07-23T16:02:36;31.50;95.70
3758;DHT22;1894;51.038;13.692;2022-07-23T16:05:03;31.10;96.00
3758;DHT22;1894;51.038;13.692;2022-07-23T16:07:30;30.00;97.20
3758;DHT22;1894;51.038;13.692;2022-07-23T16:10:07;28.90;99.60
3758;DHT22;1894;51.038;13.692;2022-07-23T16:12:35;28.00;99.90
3758;DHT22;1894;51.038;13.692;2022-07-23T16:15:03;27.60;99.90
3758;DHT22;1894;51.038;13.692;2022-07-23T16:17:33;27.50;99.90
3758;DHT22;1894;51.038;13.692;2022-07-23T16:20:00;27.70;99.90
3758;DHT22;1894;51.038;13.692;2022-07-23T16:22:31;28.20;99.90
3758;DHT22;1894;51.038;13.692;2022-07-23T16:24:58;28.30;99.90
3758;DHT22;1894;51.038;13.692;2022-07-23T16:27:25;28.00;99.90
3758;DHT22;1894;51.038;13.692;2022-07-23T16:29:52;28.00;99.90
3758;DHT22;1894;51.038;13.692;2022-07-23T16:32:19;28.00;99.90
3758;DHT22;1894;51.038;13.692;2022-07-23T16:34:46;28.10;99.90
3758;DHT22;1894;51.038;13.692;2022-07-23T16:37:13;27.90;99.90
3758;DHT22;1894;51.038;13.692;2022-07-23T16:39:41;27.90;99.90